PKNIW WADL-WADS
Flight info
| Callsign | PKNIW |
|---|---|
| Flight time | 0h 32m |
| Altitude | 7000 |
| Route | LMB W42 MUBOT |
| Aircraft | C208/L-SDFGR/C |
Departure
| Time | 2026-04-14 16:18 |
|---|---|
| Airport | Lombok International Airport (WADL) |
Arrival
| Time | 2026-04-14 16:50 |
|---|---|
| Airport | Sultan Muhammad Kaharuddin III Airport (WADS) |
| Time | Latitude | Longitude | Altitude | Speed | Heading |
|---|---|---|---|---|---|
| 2026-04-14 16:08 | -8.76057 | 116.27352 | 382 ft | 0 kts | 219° |
| 2026-04-14 16:14 | -8.76060 | 116.27348 | 328 ft | 3 kts | 243° |
| 2026-04-14 16:14 | -8.76031 | 116.27372 | 328 ft | 13 kts | 66° |
| 2026-04-14 16:15 | -8.76084 | 116.27466 | 326 ft | 19 kts | 129° |
| 2026-04-14 16:15 | -8.76148 | 116.27586 | 327 ft | 21 kts | 112° |
| 2026-04-14 16:15 | -8.76164 | 116.27692 | 326 ft | 15 kts | 50° |
| 2026-04-14 16:15 | -8.76076 | 116.27767 | 328 ft | 15 kts | 39° |
| 2026-04-14 16:16 | -8.75996 | 116.27821 | 328 ft | 12 kts | 18° |
| 2026-04-14 16:16 | -8.75912 | 116.27762 | 327 ft | 22 kts | 309° |
| 2026-04-14 16:16 | -8.75795 | 116.27616 | 328 ft | 31 kts | 307° |
| 2026-04-14 16:16 | -8.75685 | 116.27466 | 328 ft | 18 kts | 298° |
| 2026-04-14 16:17 | -8.75647 | 116.27447 | 329 ft | 4 kts | 124° |
| 2026-04-14 16:17 | -8.75678 | 116.27472 | 327 ft | 0 kts | 129° |
| 2026-04-14 16:17 | -8.75684 | 116.27480 | 327 ft | 13 kts | 129° |
| 2026-04-14 16:17 | -8.75863 | 116.27703 | 327 ft | 66 kts | 129° |
| 2026-04-14 16:18 | -8.76213 | 116.28153 | 439 ft | 89 kts | 130° |
| 2026-04-14 16:18 | -8.76532 | 116.28665 | 821 ft | 81 kts | 120° |
| 2026-04-14 16:18 | -8.76843 | 116.29169 | 1067 ft | 86 kts | 129° |
| 2026-04-14 16:18 | -8.77113 | 116.29684 | 1429 ft | 82 kts | 114° |
| 2026-04-14 16:19 | -8.77046 | 116.30280 | 1624 ft | 98 kts | 68° |
| 2026-04-14 16:19 | -8.76836 | 116.30889 | 1873 ft | 87 kts | 83° |
| 2026-04-14 16:19 | -8.76685 | 116.31467 | 2146 ft | 86 kts | 81° |
| 2026-04-14 16:19 | -8.76525 | 116.32059 | 2415 ft | 89 kts | 83° |
| 2026-04-14 16:20 | -8.76358 | 116.32680 | 2766 ft | 90 kts | 78° |
| 2026-04-14 16:20 | -8.76183 | 116.33322 | 3045 ft | 96 kts | 79° |
| 2026-04-14 16:20 | -8.76009 | 116.33970 | 3371 ft | 95 kts | 77° |
| 2026-04-14 16:20 | -8.75837 | 116.34626 | 3673 ft | 96 kts | 78° |
| 2026-04-14 16:21 | -8.75664 | 116.35270 | 4018 ft | 97 kts | 75° |
| 2026-04-14 16:21 | -8.75496 | 116.35917 | 4387 ft | 92 kts | 75° |
| 2026-04-14 16:21 | -8.75328 | 116.36548 | 4684 ft | 96 kts | 75° |
| 2026-04-14 16:21 | -8.75152 | 116.37214 | 4972 ft | 96 kts | 75° |
| 2026-04-14 16:22 | -8.74978 | 116.37870 | 5242 ft | 101 kts | 75° |
| 2026-04-14 16:22 | -8.74802 | 116.38548 | 5578 ft | 99 kts | 75° |
| 2026-04-14 16:22 | -8.74627 | 116.39218 | 5876 ft | 99 kts | 74° |
| 2026-04-14 16:22 | -8.74450 | 116.39876 | 6198 ft | 96 kts | 74° |
| 2026-04-14 16:23 | -8.74274 | 116.40538 | 6448 ft | 101 kts | 74° |
| 2026-04-14 16:23 | -8.74097 | 116.41217 | 6733 ft | 98 kts | 74° |
| 2026-04-14 16:23 | -8.73913 | 116.41907 | 6906 ft | 106 kts | 75° |
| 2026-04-14 16:23 | -8.73714 | 116.42664 | 7011 ft | 120 kts | 75° |
| 2026-04-14 16:24 | -8.73486 | 116.43541 | 7010 ft | 135 kts | 75° |
| 2026-04-14 16:24 | -8.73237 | 116.44487 | 7007 ft | 143 kts | 75° |
| 2026-04-14 16:24 | -8.72974 | 116.45480 | 7000 ft | 149 kts | 75° |
| 2026-04-14 16:24 | -8.72706 | 116.46496 | 7000 ft | 153 kts | 75° |
| 2026-04-14 16:25 | -8.72430 | 116.47539 | 6999 ft | 154 kts | 75° |
| 2026-04-14 16:25 | -8.72154 | 116.48584 | 7000 ft | 154 kts | 75° |
| 2026-04-14 16:25 | -8.71877 | 116.49635 | 6994 ft | 155 kts | 75° |
| 2026-04-14 16:25 | -8.71597 | 116.50687 | 6992 ft | 156 kts | 75° |
| 2026-04-14 16:26 | -8.71316 | 116.51751 | 6992 ft | 156 kts | 75° |
| 2026-04-14 16:26 | -8.71036 | 116.52813 | 6990 ft | 156 kts | 75° |
| 2026-04-14 16:26 | -8.70757 | 116.53866 | 6985 ft | 155 kts | 75° |
| 2026-04-14 16:26 | -8.70477 | 116.54923 | 6984 ft | 155 kts | 75° |
| 2026-04-14 16:27 | -8.70197 | 116.55980 | 6982 ft | 155 kts | 75° |
| 2026-04-14 16:27 | -8.69917 | 116.57036 | 6981 ft | 156 kts | 76° |
| 2026-04-14 16:27 | -8.69636 | 116.58102 | 6979 ft | 158 kts | 76° |
| 2026-04-14 16:27 | -8.69351 | 116.59178 | 6979 ft | 159 kts | 76° |
| 2026-04-14 16:28 | -8.69069 | 116.60243 | 6978 ft | 159 kts | 76° |
| 2026-04-14 16:28 | -8.68782 | 116.61325 | 6978 ft | 159 kts | 76° |
| 2026-04-14 16:28 | -8.68497 | 116.62406 | 6975 ft | 160 kts | 76° |
| 2026-04-14 16:28 | -8.68209 | 116.63490 | 6975 ft | 159 kts | 76° |
| 2026-04-14 16:29 | -8.67923 | 116.64572 | 6974 ft | 160 kts | 76° |
| 2026-04-14 16:29 | -8.67635 | 116.65656 | 6974 ft | 160 kts | 76° |
| 2026-04-14 16:29 | -8.67349 | 116.66738 | 6974 ft | 160 kts | 76° |
| 2026-04-14 16:29 | -8.67061 | 116.67824 | 6974 ft | 160 kts | 76° |
| 2026-04-14 16:30 | -8.66773 | 116.68910 | 6974 ft | 160 kts | 76° |
| 2026-04-14 16:30 | -8.66485 | 116.69997 | 6974 ft | 160 kts | 76° |
| 2026-04-14 16:30 | -8.66197 | 116.71082 | 6974 ft | 160 kts | 76° |
| 2026-04-14 16:30 | -8.65909 | 116.72171 | 6974 ft | 160 kts | 76° |
| 2026-04-14 16:31 | -8.65624 | 116.73247 | 6974 ft | 160 kts | 76° |
| 2026-04-14 16:31 | -8.65335 | 116.74335 | 6974 ft | 160 kts | 76° |
| 2026-04-14 16:31 | -8.65046 | 116.75425 | 6970 ft | 160 kts | 76° |
| 2026-04-14 16:31 | -8.64757 | 116.76515 | 6970 ft | 160 kts | 76° |
| 2026-04-14 16:32 | -8.64466 | 116.77609 | 6973 ft | 162 kts | 77° |
| 2026-04-14 16:32 | -8.64175 | 116.78714 | 6974 ft | 163 kts | 76° |
| 2026-04-14 16:32 | -8.63879 | 116.79822 | 6973 ft | 163 kts | 76° |
| 2026-04-14 16:32 | -8.63590 | 116.80907 | 6974 ft | 162 kts | 76° |
| 2026-04-14 16:33 | -8.63298 | 116.82012 | 6973 ft | 162 kts | 76° |
| 2026-04-14 16:33 | -8.63006 | 116.83113 | 6969 ft | 161 kts | 76° |
| 2026-04-14 16:33 | -8.62718 | 116.84204 | 6973 ft | 161 kts | 76° |
| 2026-04-14 16:33 | -8.62426 | 116.85301 | 6971 ft | 162 kts | 76° |
| 2026-04-14 16:34 | -8.62134 | 116.86399 | 6971 ft | 162 kts | 76° |
| 2026-04-14 16:34 | -8.61841 | 116.87497 | 6965 ft | 161 kts | 77° |
| 2026-04-14 16:34 | -8.61550 | 116.88596 | 6968 ft | 163 kts | 77° |
| 2026-04-14 16:34 | -8.61264 | 116.89689 | 6961 ft | 161 kts | 77° |
| 2026-04-14 16:35 | -8.60970 | 116.90780 | 6970 ft | 162 kts | 76° |
| 2026-04-14 16:35 | -8.60675 | 116.91886 | 6967 ft | 164 kts | 77° |
| 2026-04-14 16:35 | -8.60381 | 116.92995 | 6961 ft | 162 kts | 77° |
| 2026-04-14 16:35 | -8.60091 | 116.94086 | 6960 ft | 160 kts | 77° |
| 2026-04-14 16:36 | -8.59803 | 116.95170 | 6966 ft | 159 kts | 77° |
| 2026-04-14 16:36 | -8.59516 | 116.96253 | 6965 ft | 161 kts | 77° |
| 2026-04-14 16:36 | -8.59227 | 116.97339 | 6967 ft | 159 kts | 77° |
| 2026-04-14 16:36 | -8.58939 | 116.98426 | 6960 ft | 160 kts | 76° |
| 2026-04-14 16:37 | -8.58652 | 116.99504 | 6962 ft | 159 kts | 77° |
| 2026-04-14 16:37 | -8.58365 | 117.00578 | 6963 ft | 158 kts | 77° |
| 2026-04-14 16:37 | -8.58082 | 117.01651 | 6964 ft | 159 kts | 77° |
| 2026-04-14 16:37 | -8.57795 | 117.02725 | 6954 ft | 156 kts | 77° |
| 2026-04-14 16:38 | -8.57513 | 117.03783 | 6971 ft | 157 kts | 77° |
| 2026-04-14 16:38 | -8.57233 | 117.04841 | 6981 ft | 158 kts | 77° |
| 2026-04-14 16:38 | -8.56951 | 117.05892 | 7002 ft | 156 kts | 76° |
| 2026-04-14 16:38 | -8.56668 | 117.06958 | 7013 ft | 158 kts | 77° |
| 2026-04-14 16:39 | -8.56380 | 117.08047 | 7003 ft | 161 kts | 78° |
| 2026-04-14 16:39 | -8.56087 | 117.09143 | 7004 ft | 162 kts | 77° |
| 2026-04-14 16:39 | -8.55775 | 117.10241 | 7010 ft | 162 kts | 76° |
| 2026-04-14 16:39 | -8.55469 | 117.11340 | 7006 ft | 162 kts | 75° |
| 2026-04-14 16:40 | -8.55168 | 117.12432 | 7005 ft | 163 kts | 75° |
| 2026-04-14 16:40 | -8.54862 | 117.13541 | 6972 ft | 161 kts | 76° |
| 2026-04-14 16:40 | -8.54563 | 117.14618 | 7046 ft | 162 kts | 76° |
| 2026-04-14 16:40 | -8.54262 | 117.15723 | 7002 ft | 163 kts | 76° |
| 2026-04-14 16:41 | -8.53949 | 117.16831 | 6879 ft | 165 kts | 75° |
| 2026-04-14 16:41 | -8.53657 | 117.17959 | 6719 ft | 169 kts | 79° |
| 2026-04-14 16:41 | -8.53363 | 117.19095 | 6707 ft | 164 kts | 78° |
| 2026-04-14 16:41 | -8.53049 | 117.20198 | 6707 ft | 163 kts | 77° |
| 2026-04-14 16:42 | -8.52737 | 117.21313 | 6605 ft | 166 kts | 78° |
| 2026-04-14 16:42 | -8.52433 | 117.22419 | 6483 ft | 159 kts | 77° |
| 2026-04-14 16:42 | -8.52141 | 117.23455 | 6355 ft | 147 kts | 78° |
| 2026-04-14 16:42 | -8.51866 | 117.24423 | 6215 ft | 140 kts | 76° |
| 2026-04-14 16:43 | -8.51609 | 117.25340 | 6083 ft | 135 kts | 77° |
| 2026-04-14 16:43 | -8.51357 | 117.26261 | 5941 ft | 135 kts | 78° |
| 2026-04-14 16:43 | -8.51114 | 117.27151 | 5803 ft | 129 kts | 77° |
| 2026-04-14 16:43 | -8.50876 | 117.28012 | 5675 ft | 125 kts | 78° |
| 2026-04-14 16:44 | -8.50637 | 117.28864 | 5550 ft | 127 kts | 77° |
| 2026-04-14 16:44 | -8.50389 | 117.29736 | 5439 ft | 132 kts | 78° |
| 2026-04-14 16:44 | -8.50142 | 117.30643 | 5271 ft | 137 kts | 79° |
| 2026-04-14 16:45 | -8.49657 | 117.32405 | 4782 ft | 125 kts | 79° |
| 2026-04-14 16:45 | -8.49422 | 117.33264 | 4532 ft | 128 kts | 77° |
| 2026-04-14 16:45 | -8.49180 | 117.34130 | 4296 ft | 129 kts | 76° |
| 2026-04-14 16:45 | -8.48744 | 117.34931 | 4053 ft | 132 kts | 63° |
| 2026-04-14 16:46 | -8.48232 | 117.35693 | 3803 ft | 131 kts | 60° |
| 2026-04-14 16:46 | -8.47723 | 117.36439 | 3572 ft | 124 kts | 60° |
| 2026-04-14 16:46 | -8.47258 | 117.37141 | 3323 ft | 119 kts | 61° |
| 2026-04-14 16:46 | -8.46794 | 117.37852 | 3074 ft | 120 kts | 61° |
| 2026-04-14 16:47 | -8.46334 | 117.38546 | 2821 ft | 116 kts | 61° |
| 2026-04-14 16:47 | -8.45898 | 117.39209 | 2565 ft | 114 kts | 59° |
| 2026-04-14 16:47 | -8.45393 | 117.39755 | 2463 ft | 104 kts | 25° |
| 2026-04-14 16:47 | -8.44694 | 117.39531 | 2480 ft | 121 kts | 309° |
| 2026-04-14 16:48 | -8.44545 | 117.38685 | 2339 ft | 135 kts | 257° |
| 2026-04-14 16:48 | -8.45007 | 117.37856 | 1861 ft | 136 kts | 211° |
| 2026-04-14 16:48 | -8.45788 | 117.37904 | 1530 ft | 116 kts | 131° |
| 2026-04-14 16:48 | -8.46242 | 117.38552 | 1190 ft | 110 kts | 123° |
| 2026-04-14 16:49 | -8.46639 | 117.39085 | 981 ft | 80 kts | 127° |
| 2026-04-14 16:49 | -8.46989 | 117.39491 | 735 ft | 74 kts | 130° |
| 2026-04-14 16:49 | -8.47341 | 117.39862 | 504 ft | 73 kts | 134° |
| 2026-04-14 16:49 | -8.47693 | 117.40195 | 304 ft | 68 kts | 134° |
| 2026-04-14 16:50 | -8.48037 | 117.40502 | 78 ft | 63 kts | 134° |
| 2026-04-14 16:50 | -8.48349 | 117.40772 | 8 ft | 56 kts | 135° |
| 2026-04-14 16:50 | -8.48604 | 117.40983 | 12 ft | 36 kts | 140° |
| 2026-04-14 16:50 | -8.48790 | 117.41138 | 16 ft | 33 kts | 140° |
| 2026-04-14 16:51 | -8.48949 | 117.41267 | 14 ft | 16 kts | 137° |
| 2026-04-14 16:51 | -8.48947 | 117.41329 | 15 ft | 13 kts | 51° |
| 2026-04-14 16:51 | -8.48892 | 117.41396 | 13 ft | 14 kts | 57° |
| 2026-04-14 16:51 | -8.48922 | 117.41446 | 12 ft | 11 kts | 141° |
| 2026-04-14 16:52 | -8.48979 | 117.41466 | 13 ft | 8 kts | 228° |
| 2026-04-14 16:52 | -8.48971 | 117.41421 | 13 ft | 11 kts | 324° |
| 2026-04-14 16:52 | -8.48931 | 117.41390 | 13 ft | 3 kts | 338° |
| 2026-04-14 16:52 | -8.48923 | 117.41392 | 12 ft | 2 kts | 45° |
| 2026-04-14 16:53 | -8.48918 | 117.41399 | 12 ft | 0 kts | 58° |